EGTC - Cranfield
Distance from station: E 5mi, 14km
Updated: 01/20/2018 8:50am
NOT Current
Mostly Cloudy
Mostly Cloudy
 Wind from NE
Wind: NE 7 mph , 11 km/h
Temperature: 36°F , 2°C
Wind Chill: 30°F , -1°C
Dew Point: 36°F , 2°C
Humidity: 100%
Barometer: 29.53 inHg , 1000 hPa
Clouds: Mostly Cloudy
Visibility: 2 miles , 3 km
Cloud details: Mostly Cloudy 400 ft
2018/01/20 16:50 EGTC 201650Z 04006KT 3000 BKN004 02/02 Q1000